Tropical Cyclones
[Index]
Main Index Home Page Stock Weather Photos Extreme Storms Discussion Storm News and Storm Chasing Reports Tropical Cyclones / Hurricanes / Typhoons Weather Data and Links Wild Fires / Bushfires Weather Observation Techniques Weather Picture Catalogue Tornado Pictures and Reports Stock Video Footage and DVDs for sale
Season 2014-2015 Tropical Cyclone MARCIA Track Map
Season 2014-2015 Summaries: [BoM-AU] [JTWC-AU] [JTWC-SIO] [JTWC-SPAC] [JTWC-SH]
<<- Previous TC | BoM 2014-2015 Season | Next TC ->>

click for intensity scale information  Lat/long Grid: Show Hide

 Date Labels: Show Hide

Bureau of Meteorology Tropical Cyclone Data

Name: MARCIA
Number: 983 / 201415_14

16 Feb 2015 06:00 UTC to 20 Feb 2015 18:00 UTC

    date/time    lat    long    hPa   cat  kts
2015-02-16 06   15.0   152.3   1000         20          
2015-02-16 12   14.6   153.9   1000         20          
2015-02-16 18   14.3   155.0   1000         25          
2015-02-17 00   14.4   155.5   1000         25          
2015-02-17 06   14.8   155.6    999         25          
2015-02-17 12   15.2   156.1    999         30          
2015-02-17 18   15.6   156.1    996         30          
2015-02-18 00   16.4   155.8    996         35          
2015-02-18 06   17.2   155.3    995    1    35          
2015-02-18 12   18.1   154.3    990    1    50          
2015-02-18 18   19.1   153.2    989    1    50          
2015-02-19 00   20.0   152.0    979    2    65          
2015-02-19 06   20.6   150.9    948    4    95          
2015-02-19 08   20.6   150.6    943    4    100          
2015-02-19 12   20.9   150.5    938    4    105          
2015-02-19 18   21.6   150.5    932    4    110          
2015-02-19 21   22.2   150.5    933    4    110          
2015-02-20 00   22.8   150.5    944    4    100          
2015-02-20 03   23.2   150.5    969    3    80          
2015-02-20 06   23.8   150.6    980    2    55          
2015-02-20 12   24.6   151.3    994    1    30          
2015-02-20 18   25.4   151.8    999         25          
Winds are 10-min average.

Tropical cyclone tracks developed by Michael Bath using data from the Bureau of Meteorology and Google Maps.


[Australian Severe Weather index] [Copyright Notice] [Email Contacts] [Search This Site] [Privacy Policy]
Document: tropical_cyclone_marcia.htm Updated: 29 June 2017